sensor_id;sensor_type;location;lat;lon;timestamp;pressure;altitude;pressure_sealevel;temperature;humidity
63568;BME280;49715;42.386;20.434;2022-11-20T00:00:09;96416.63;;;14.54;72.62
63568;BME280;49715;42.386;20.434;2022-11-20T00:02:35;96397.84;;;14.56;72.44
63568;BME280;49715;42.386;20.434;2022-11-20T00:05:01;96405.38;;;14.59;72.71
63568;BME280;49715;42.386;20.434;2022-11-20T00:07:27;96391.53;;;14.57;72.60
63568;BME280;49715;42.386;20.434;2022-11-20T00:09:53;96388.88;;;14.57;72.25
63568;BME280;49715;42.386;20.434;2022-11-20T00:12:19;96390.50;;;14.58;72.14
63568;BME280;49715;42.386;20.434;2022-11-20T00:14:45;96377.25;;;14.58;71.74
63568;BME280;49715;42.386;20.434;2022-11-20T00:17:11;96361.97;;;14.60;71.62
63568;BME280;49715;42.386;20.434;2022-11-20T00:19:38;96375.22;;;14.60;71.45
63568;BME280;49715;42.386;20.434;2022-11-20T00:22:04;96379.28;;;14.62;71.64
63568;BME280;49715;42.386;20.434;2022-11-20T00:24:30;96354.22;;;14.65;71.40
63568;BME280;49715;42.386;20.434;2022-11-20T00:26:56;96377.06;;;14.66;71.86
63568;BME280;49715;42.386;20.434;2022-11-20T00:29:22;96364.03;;;14.64;72.06
63568;BME280;49715;42.386;20.434;2022-11-20T00:31:48;96373.78;;;14.64;71.87
63568;BME280;49715;42.386;20.434;2022-11-20T00:34:14;96353.81;;;14.61;71.78
63568;BME280;49715;42.386;20.434;2022-11-20T00:36:40;96349.53;;;14.60;72.11
63568;BME280;49715;42.386;20.434;2022-11-20T00:39:06;96327.88;;;14.57;71.52
63568;BME280;49715;42.386;20.434;2022-11-20T00:41:32;96325.25;;;14.57;71.70
63568;BME280;49715;42.386;20.434;2022-11-20T00:43:58;96343.00;;;14.56;71.88
63568;BME280;49715;42.386;20.434;2022-11-20T00:46:26;96361.53;;;14.56;71.93
63568;BME280;49715;42.386;20.434;2022-11-20T00:48:52;96349.91;;;14.57;71.63
63568;BME280;49715;42.386;20.434;2022-11-20T00:51:19;96332.81;;;14.60;71.46
63568;BME280;49715;42.386;20.434;2022-11-20T00:53:46;96319.34;;;14.61;71.52
63568;BME280;49715;42.386;20.434;2022-11-20T00:56:13;96328.09;;;14.62;71.65
63568;BME280;49715;42.386;20.434;2022-11-20T00:58:40;96332.38;;;14.63;70.89
63568;BME280;49715;42.386;20.434;2022-11-20T01:01:08;96327.50;;;14.66;70.56
63568;BME280;49715;42.386;20.434;2022-11-20T01:03:35;96345.88;;;14.75;69.85
63568;BME280;49715;42.386;20.434;2022-11-20T01:06:02;96332.00;;;14.86;69.43
63568;BME280;49715;42.386;20.434;2022-11-20T01:08:30;96326.69;;;14.92;69.57
63568;BME280;49715;42.386;20.434;2022-11-20T01:11:04;96331.19;;;14.99;69.24
63568;BME280;49715;42.386;20.434;2022-11-20T01:13:31;96341.19;;;15.03;69.19
63568;BME280;49715;42.386;20.434;2022-11-20T01:18:32;96325.47;;;15.08;69.34
63568;BME280;49715;42.386;20.434;2022-11-20T01:21:10;96334.25;;;15.09;68.86
63568;BME280;49715;42.386;20.434;2022-11-20T01:23:38;96304.84;;;15.10;68.53
63568;BME280;49715;42.386;20.434;2022-11-20T01:26:06;96321.16;;;15.14;68.74
63568;BME280;49715;42.386;20.434;2022-11-20T01:28:32;96330.34;;;15.11;68.84
63568;BME280;49715;42.386;20.434;2022-11-20T01:30:59;96356.28;;;15.09;68.93
63568;BME280;49715;42.386;20.434;2022-11-20T01:33:25;96406.28;;;15.12;69.30
63568;BME280;49715;42.386;20.434;2022-11-20T01:35:51;96432.81;;;15.12;69.46
63568;BME280;49715;42.386;20.434;2022-11-20T01:38:17;96414.06;;;15.14;69.07
63568;BME280;49715;42.386;20.434;2022-11-20T01:40:44;96387.50;;;15.27;69.36
63568;BME280;49715;42.386;20.434;2022-11-20T01:43:17;96368.28;;;15.32;69.33
63568;BME280;49715;42.386;20.434;2022-11-20T01:46:20;96366.84;;;15.49;68.62
63568;BME280;49715;42.386;20.434;2022-11-20T01:51:13;96379.28;;;15.82;68.44
63568;BME280;49715;42.386;20.434;2022-11-20T01:53:41;96370.09;;;15.78;68.71
63568;BME280;49715;42.386;20.434;2022-11-20T01:56:08;96385.44;;;15.69;67.14
63568;BME280;49715;42.386;20.434;2022-11-20T01:58:36;96403.84;;;15.64;68.90
63568;BME280;49715;42.386;20.434;2022-11-20T02:01:05;96384.00;;;15.53;68.88
63568;BME280;49715;42.386;20.434;2022-11-20T02:03:31;96348.47;;;15.41;69.34
63568;BME280;49715;42.386;20.434;2022-11-20T02:06:05;96446.53;;;15.29;69.70
63568;BME280;49715;42.386;20.434;2022-11-20T02:08:33;96488.38;;;15.14;71.75
63568;BME280;49715;42.386;20.434;2022-11-20T02:10:59;96530.34;;;14.84;70.62
63568;BME280;49715;42.386;20.434;2022-11-20T02:13:25;96542.66;;;14.57;71.35
63568;BME280;49715;42.386;20.434;2022-11-20T02:16:20;96537.97;;;14.24;71.75
63568;BME280;49715;42.386;20.434;2022-11-20T02:18:47;96540.56;;;14.11;71.90
63568;BME280;49715;42.386;20.434;2022-11-20T02:26:11;96545.97;;;13.68;70.27
63568;BME280;49715;42.386;20.434;2022-11-20T02:28:38;96559.53;;;13.58;70.58
63568;BME280;49715;42.386;20.434;2022-11-20T02:31:05;96556.13;;;13.43;70.98
63568;BME280;49715;42.386;20.434;2022-11-20T02:33:31;96523.09;;;13.39;72.03
63568;BME280;49715;42.386;20.434;2022-11-20T02:35:57;96522.16;;;13.25;72.95
63568;BME280;49715;42.386;20.434;2022-11-20T02:38:23;96518.97;;;13.15;73.67
63568;BME280;49715;42.386;20.434;2022-11-20T02:40:49;96531.34;;;13.08;73.94
63568;BME280;49715;42.386;20.434;2022-11-20T02:43:15;96550.41;;;13.03;74.45
63568;BME280;49715;42.386;20.434;2022-11-20T02:45:41;96532.88;;;13.02;74.62
63568;BME280;49715;42.386;20.434;2022-11-20T02:48:08;96544.28;;;13.03;75.01
63568;BME280;49715;42.386;20.434;2022-11-20T02:50:36;96547.75;;;13.03;75.31
63568;BME280;49715;42.386;20.434;2022-11-20T02:53:02;96541.25;;;13.06;75.42
63568;BME280;49715;42.386;20.434;2022-11-20T02:55:28;96541.91;;;13.08;75.76
63568;BME280;49715;42.386;20.434;2022-11-20T02:57:54;96546.00;;;13.10;75.95
63568;BME280;49715;42.386;20.434;2022-11-20T03:00:20;96508.75;;;13.12;76.10
63568;BME280;49715;42.386;20.434;2022-11-20T03:02:47;96513.69;;;13.15;76.21
63568;BME280;49715;42.386;20.434;2022-11-20T03:05:13;96497.63;;;13.17;76.16
63568;BME280;49715;42.386;20.434;2022-11-20T03:07:39;96507.00;;;13.19;76.15
63568;BME280;49715;42.386;20.434;2022-11-20T03:10:06;96508.47;;;13.22;76.16
63568;BME280;49715;42.386;20.434;2022-11-20T03:12:32;96476.59;;;13.08;76.13
63568;BME280;49715;42.386;20.434;2022-11-20T03:14:58;96515.22;;;13.24;76.12
63568;BME280;49715;42.386;20.434;2022-11-20T03:17:24;96516.50;;;13.28;76.45
63568;BME280;49715;42.386;20.434;2022-11-20T03:19:50;96525.34;;;13.21;76.68
63568;BME280;49715;42.386;20.434;2022-11-20T03:22:17;96549.69;;;13.31;77.14
63568;BME280;49715;42.386;20.434;2022-11-20T03:24:43;96531.00;;;13.32;77.53
63568;BME280;49715;42.386;20.434;2022-11-20T03:27:09;96519.38;;;13.33;77.81
63568;BME280;49715;42.386;20.434;2022-11-20T03:29:35;96520.22;;;13.34;78.04
63568;BME280;49715;42.386;20.434;2022-11-20T03:32:01;96532.63;;;13.33;78.17
63568;BME280;49715;42.386;20.434;2022-11-20T03:34:27;96533.25;;;13.35;78.51
63568;BME280;49715;42.386;20.434;2022-11-20T03:36:53;96525.94;;;13.37;78.89
63568;BME280;49715;42.386;20.434;2022-11-20T03:39:20;96553.84;;;13.40;79.22
63568;BME280;49715;42.386;20.434;2022-11-20T03:41:46;96562.44;;;13.42;79.21
63568;BME280;49715;42.386;20.434;2022-11-20T03:44:12;96580.97;;;13.42;79.35
63568;BME280;49715;42.386;20.434;2022-11-20T03:46:38;96591.91;;;13.39;79.38
63568;BME280;49715;42.386;20.434;2022-11-20T03:49:04;96602.69;;;13.37;79.63
63568;BME280;49715;42.386;20.434;2022-11-20T03:51:31;96583.91;;;13.32;79.77
63568;BME280;49715;42.386;20.434;2022-11-20T03:54:00;96607.09;;;13.30;79.97
63568;BME280;49715;42.386;20.434;2022-11-20T03:56:30;96568.97;;;13.25;80.18
63568;BME280;49715;42.386;20.434;2022-11-20T03:58:56;96551.63;;;13.22;80.40
63568;BME280;49715;42.386;20.434;2022-11-20T04:01:27;96543.53;;;13.24;80.69
63568;BME280;49715;42.386;20.434;2022-11-20T04:03:53;96572.63;;;13.24;80.78
63568;BME280;49715;42.386;20.434;2022-11-20T04:06:22;96571.13;;;13.21;80.78
63568;BME280;49715;42.386;20.434;2022-11-20T04:08:48;96573.72;;;13.14;80.89
63568;BME280;49715;42.386;20.434;2022-11-20T04:11:15;96567.16;;;13.10;81.03
63568;BME280;49715;42.386;20.434;2022-11-20T04:13:45;96590.16;;;13.10;81.20
63568;BME280;49715;42.386;20.434;2022-11-20T04:16:11;96594.44;;;13.11;81.47
63568;BME280;49715;42.386;20.434;2022-11-20T04:18:37;96595.91;;;13.13;81.78
63568;BME280;49715;42.386;20.434;2022-11-20T04:21:04;96548.09;;;13.15;81.86
63568;BME280;49715;42.386;20.434;2022-11-20T04:23:30;96540.34;;;13.13;81.91
63568;BME280;49715;42.386;20.434;2022-11-20T04:26:07;96546.44;;;13.14;82.00
63568;BME280;49715;42.386;20.434;2022-11-20T04:28:33;96558.84;;;13.13;82.18
63568;BME280;49715;42.386;20.434;2022-11-20T04:31:10;96574.72;;;13.13;82.13
63568;BME280;49715;42.386;20.434;2022-11-20T04:33:36;96559.69;;;13.14;82.16
63568;BME280;49715;42.386;20.434;2022-11-20T04:36:12;96560.50;;;13.14;82.13
63568;BME280;49715;42.386;20.434;2022-11-20T04:38:39;96580.66;;;13.15;82.16
63568;BME280;49715;42.386;20.434;2022-11-20T04:41:06;96552.56;;;13.14;82.31
63568;BME280;49715;42.386;20.434;2022-11-20T04:43:33;96540.34;;;13.13;82.28
63568;BME280;49715;42.386;20.434;2022-11-20T04:45:59;96523.81;;;13.11;82.39
63568;BME280;49715;42.386;20.434;2022-11-20T04:48:26;96536.03;;;13.12;82.39
63568;BME280;49715;42.386;20.434;2022-11-20T04:50:53;96543.00;;;13.13;82.47
63568;BME280;49715;42.386;20.434;2022-11-20T04:53:19;96561.09;;;13.17;82.14
63568;BME280;49715;42.386;20.434;2022-11-20T04:55:45;96571.53;;;13.18;82.03
63568;BME280;49715;42.386;20.434;2022-11-20T04:58:12;96550.38;;;13.18;81.83
63568;BME280;49715;42.386;20.434;2022-11-20T05:00:38;96527.38;;;13.19;81.80
63568;BME280;49715;42.386;20.434;2022-11-20T05:03:04;96543.03;;;13.20;81.90
63568;BME280;49715;42.386;20.434;2022-11-20T05:05:30;96514.50;;;13.15;82.21
63568;BME280;49715;42.386;20.434;2022-11-20T05:07:57;96497.03;;;13.21;82.16
63568;BME280;49715;42.386;20.434;2022-11-20T05:10:23;96477.09;;;13.19;82.31
63568;BME280;49715;42.386;20.434;2022-11-20T05:12:50;96498.25;;;13.19;82.30
63568;BME280;49715;42.386;20.434;2022-11-20T05:15:16;96489.06;;;13.14;82.27
63568;BME280;49715;42.386;20.434;2022-11-20T05:17:48;96486.97;;;13.10;82.23
63568;BME280;49715;42.386;20.434;2022-11-20T05:20:15;96476.97;;;13.05;82.12
63568;BME280;49715;42.386;20.434;2022-11-20T05:22:41;96477.31;;;13.02;82.07
63568;BME280;49715;42.386;20.434;2022-11-20T05:25:07;96485.47;;;13.01;82.07
63568;BME280;49715;42.386;20.434;2022-11-20T05:27:33;96474.06;;;13.00;82.28
63568;BME280;49715;42.386;20.434;2022-11-20T05:29:59;96470.59;;;13.00;82.12
63568;BME280;49715;42.386;20.434;2022-11-20T05:32:25;96486.47;;;13.00;82.20
63568;BME280;49715;42.386;20.434;2022-11-20T05:34:52;96497.06;;;13.00;82.04
63568;BME280;49715;42.386;20.434;2022-11-20T05:37:18;96504.19;;;12.99;81.92
63568;BME280;49715;42.386;20.434;2022-11-20T05:39:44;96512.13;;;12.99;81.83
63568;BME280;49715;42.386;20.434;2022-11-20T05:42:11;96512.72;;;13.01;81.96
63568;BME280;49715;42.386;20.434;2022-11-20T05:45:00;96512.38;;;13.04;82.02
63568;BME280;49715;42.386;20.434;2022-11-20T05:47:28;96516.44;;;13.07;81.89
63568;BME280;49715;42.386;20.434;2022-11-20T05:49:56;96511.97;;;13.07;81.74
63568;BME280;49715;42.386;20.434;2022-11-20T05:52:23;96522.56;;;13.07;81.77
63568;BME280;49715;42.386;20.434;2022-11-20T05:54:49;96524.22;;;13.08;81.75
63568;BME280;49715;42.386;20.434;2022-11-20T05:57:15;96520.56;;;13.09;81.79
63568;BME280;49715;42.386;20.434;2022-11-20T05:59:41;96518.91;;;13.08;81.66
63568;BME280;49715;42.386;20.434;2022-11-20T06:02:07;96521.56;;;13.08;81.59
63568;BME280;49715;42.386;20.434;2022-11-20T06:04:33;96529.66;;;13.07;81.59
63568;BME280;49715;42.386;20.434;2022-11-20T06:06:59;96534.91;;;13.00;81.36
63568;BME280;49715;42.386;20.434;2022-11-20T06:09:25;96534.19;;;12.92;81.56
63568;BME280;49715;42.386;20.434;2022-11-20T06:11:51;96547.34;;;12.85;81.61
63568;BME280;49715;42.386;20.434;2022-11-20T06:14:17;96555.56;;;12.75;81.95
63568;BME280;49715;42.386;20.434;2022-11-20T06:16:43;96577.34;;;12.77;82.01
63568;BME280;49715;42.386;20.434;2022-11-20T06:19:09;96588.47;;;12.73;82.05
63568;BME280;49715;42.386;20.434;2022-11-20T06:21:36;96570.09;;;12.65;82.28
63568;BME280;49715;42.386;20.434;2022-11-20T06:24:02;96595.13;;;12.69;82.33
63568;BME280;49715;42.386;20.434;2022-11-20T06:26:28;96605.72;;;12.69;82.34
63568;BME280;49715;42.386;20.434;2022-11-20T06:28:54;96610.19;;;12.68;82.64
63568;BME280;49715;42.386;20.434;2022-11-20T06:31:22;96598.97;;;12.66;82.67
63568;BME280;49715;42.386;20.434;2022-11-20T06:33:49;96610.19;;;12.68;82.73
63568;BME280;49715;42.386;20.434;2022-11-20T06:36:16;96599.44;;;12.70;83.02
63568;BME280;49715;42.386;20.434;2022-11-20T06:38:42;96608.66;;;12.74;83.12
63568;BME280;49715;42.386;20.434;2022-11-20T06:41:10;96605.63;;;12.77;83.11
63568;BME280;49715;42.386;20.434;2022-11-20T06:43:36;96588.59;;;12.79;83.14
63568;BME280;49715;42.386;20.434;2022-11-20T06:46:03;96611.19;;;12.82;83.04
63568;BME280;49715;42.386;20.434;2022-11-20T06:48:29;96602.22;;;12.83;83.04
63568;BME280;49715;42.386;20.434;2022-11-20T06:50:56;96615.28;;;12.84;82.99
63568;BME280;49715;42.386;20.434;2022-11-20T06:53:22;96612.66;;;12.84;82.83
63568;BME280;49715;42.386;20.434;2022-11-20T06:55:49;96626.88;;;12.83;82.87
63568;BME280;49715;42.386;20.434;2022-11-20T06:58:16;96619.75;;;12.84;82.89
63568;BME280;49715;42.386;20.434;2022-11-20T07:00:42;96620.38;;;12.86;82.96
63568;BME280;49715;42.386;20.434;2022-11-20T07:03:09;96617.56;;;12.87;82.93
63568;BME280;49715;42.386;20.434;2022-11-20T07:05:35;96615.72;;;12.88;82.88
63568;BME280;49715;42.386;20.434;2022-11-20T07:08:02;96588.84;;;12.84;82.83
63568;BME280;49715;42.386;20.434;2022-11-20T07:10:29;96586.56;;;12.81;82.84
63568;BME280;49715;42.386;20.434;2022-11-20T07:12:55;96579.84;;;12.79;82.69
63568;BME280;49715;42.386;20.434;2022-11-20T07:15:21;96584.13;;;12.80;82.78
63568;BME280;49715;42.386;20.434;2022-11-20T07:17:48;96587.38;;;12.82;82.80
63568;BME280;49715;42.386;20.434;2022-11-20T07:20:14;96572.16;;;12.84;82.80
63568;BME280;49715;42.386;20.434;2022-11-20T07:22:40;96565.22;;;12.83;82.64
63568;BME280;49715;42.386;20.434;2022-11-20T07:25:07;96582.75;;;12.84;82.79
63568;BME280;49715;42.386;20.434;2022-11-20T07:27:33;96569.13;;;12.87;82.62
63568;BME280;49715;42.386;20.434;2022-11-20T07:30:00;96573.41;;;12.88;82.67
63568;BME280;49715;42.386;20.434;2022-11-20T07:32:26;96587.66;;;12.87;82.65
63568;BME280;49715;42.386;20.434;2022-11-20T07:34:52;96590.47;;;12.85;82.57
63568;BME280;49715;42.386;20.434;2022-11-20T07:37:18;96595.16;;;12.83;82.68
63568;BME280;49715;42.386;20.434;2022-11-20T07:39:44;96630.50;;;12.82;82.80
63568;BME280;49715;42.386;20.434;2022-11-20T07:42:11;96637.63;;;12.82;82.82
63568;BME280;49715;42.386;20.434;2022-11-20T07:44:38;96657.97;;;12.81;82.73
63568;BME280;49715;42.386;20.434;2022-11-20T07:47:04;96612.81;;;12.83;82.55
63568;BME280;49715;42.386;20.434;2022-11-20T07:49:30;96605.72;;;12.83;82.73
63568;BME280;49715;42.386;20.434;2022-11-20T07:51:56;96629.69;;;12.82;82.63
63568;BME280;49715;42.386;20.434;2022-11-20T07:54:22;96633.34;;;12.81;82.68
63568;BME280;49715;42.386;20.434;2022-11-20T07:56:49;96628.69;;;12.83;82.77
63568;BME280;49715;42.386;20.434;2022-11-20T07:59:15;96623.38;;;12.83;82.82
63568;BME280;49715;42.386;20.434;2022-11-20T08:01:44;96636.25;;;12.86;83.06
63568;BME280;49715;42.386;20.434;2022-11-20T08:04:10;96642.34;;;12.86;82.70
63568;BME280;49715;42.386;20.434;2022-11-20T08:06:37;96625.88;;;12.84;82.79
63568;BME280;49715;42.386;20.434;2022-11-20T08:09:03;96638.28;;;12.84;82.68
63568;BME280;49715;42.386;20.434;2022-11-20T08:11:30;96656.94;;;12.82;82.74
63568;BME280;49715;42.386;20.434;2022-11-20T08:14:15;96659.78;;;12.81;82.53
63568;BME280;49715;42.386;20.434;2022-11-20T08:16:42;96674.19;;;12.78;82.72
63568;BME280;49715;42.386;20.434;2022-11-20T08:19:09;96684.59;;;12.80;82.76
63568;BME280;49715;42.386;20.434;2022-11-20T08:21:35;96667.25;;;12.77;82.61
63568;BME280;49715;42.386;20.434;2022-11-20T08:24:03;96674.38;;;12.77;82.52
63568;BME280;49715;42.386;20.434;2022-11-20T08:26:29;96695.91;;;12.74;82.86
63568;BME280;49715;42.386;20.434;2022-11-20T08:28:56;96721.34;;;12.75;82.76
63568;BME280;49715;42.386;20.434;2022-11-20T08:31:22;96727.91;;;12.79;82.64
63568;BME280;49715;42.386;20.434;2022-11-20T08:33:49;96727.72;;;12.80;82.59
63568;BME280;49715;42.386;20.434;2022-11-20T08:36:15;96721.22;;;12.83;82.45
63568;BME280;49715;42.386;20.434;2022-11-20T08:38:42;96706.38;;;12.82;82.45
63568;BME280;49715;42.386;20.434;2022-11-20T08:41:08;96702.09;;;12.81;82.47
63568;BME280;49715;42.386;20.434;2022-11-20T08:43:53;96703.56;;;12.83;82.32
63568;BME280;49715;42.386;20.434;2022-11-20T08:46:20;96703.19;;;12.86;82.01
63568;BME280;49715;42.386;20.434;2022-11-20T08:48:46;96677.56;;;12.87;81.33
63568;BME280;49715;42.386;20.434;2022-11-20T08:51:12;96659.50;;;12.91;81.32
63568;BME280;49715;42.386;20.434;2022-11-20T08:53:39;96674.19;;;12.93;80.89
63568;BME280;49715;42.386;20.434;2022-11-20T08:56:05;96681.13;;;12.94;79.05
63568;BME280;49715;42.386;20.434;2022-11-20T08:58:31;96686.69;;;12.99;77.44
63568;BME280;49715;42.386;20.434;2022-11-20T09:00:58;96678.19;;;13.04;77.49
63568;BME280;49715;42.386;20.434;2022-11-20T09:03:24;96666.41;;;13.06;77.40
63568;BME280;49715;42.386;20.434;2022-11-20T09:05:59;96651.34;;;13.07;77.30
63568;BME280;49715;42.386;20.434;2022-11-20T09:08:26;96658.47;;;13.06;77.13
63568;BME280;49715;42.386;20.434;2022-11-20T09:10:53;96659.50;;;13.05;77.24
63568;BME280;49715;42.386;20.434;2022-11-20T09:13:20;96649.25;;;13.02;77.20
63568;BME280;49715;42.386;20.434;2022-11-20T09:15:46;96666.34;;;13.00;77.13
63568;BME280;49715;42.386;20.434;2022-11-20T09:18:12;96683.59;;;12.96;76.83
63568;BME280;49715;42.386;20.434;2022-11-20T09:20:39;96685.97;;;12.91;77.41
63568;BME280;49715;42.386;20.434;2022-11-20T09:23:05;96706.28;;;12.90;77.14
63568;BME280;49715;42.386;20.434;2022-11-20T09:25:31;96704.66;;;12.89;77.12
63568;BME280;49715;42.386;20.434;2022-11-20T09:27:57;96709.28;;;12.87;77.46
63568;BME280;49715;42.386;20.434;2022-11-20T09:30:23;96707.84;;;12.84;76.88
63568;BME280;49715;42.386;20.434;2022-11-20T09:32:50;96712.47;;;12.82;76.37
63568;BME280;49715;42.386;20.434;2022-11-20T09:35:16;96713.97;;;12.85;76.79
63568;BME280;49715;42.386;20.434;2022-11-20T09:37:43;96715.94;;;12.83;75.74
63568;BME280;49715;42.386;20.434;2022-11-20T09:40:17;96695.81;;;12.82;75.93
63568;BME280;49715;42.386;20.434;2022-11-20T09:42:45;96671.19;;;12.81;75.82
63568;BME280;49715;42.386;20.434;2022-11-20T09:45:18;96697.81;;;12.80;76.04
63568;BME280;49715;42.386;20.434;2022-11-20T09:50:34;96708.75;;;12.77;76.93
63568;BME280;49715;42.386;20.434;2022-11-20T09:53:13;96718.69;;;12.75;76.79
63568;BME280;49715;42.386;20.434;2022-11-20T09:55:42;96717.69;;;12.76;76.94
63568;BME280;49715;42.386;20.434;2022-11-20T09:58:28;96701.00;;;12.75;76.63
63568;BME280;49715;42.386;20.434;2022-11-20T10:01:00;96676.00;;;12.78;75.87
63568;BME280;49715;42.386;20.434;2022-11-20T10:03:50;96669.53;;;12.80;76.39
63568;BME280;49715;42.386;20.434;2022-11-20T10:06:20;96692.34;;;12.81;76.05
63568;BME280;49715;42.386;20.434;2022-11-20T10:08:51;96697.44;;;12.83;75.10
63568;BME280;49715;42.386;20.434;2022-11-20T10:11:24;96694.97;;;12.81;74.90
63568;BME280;49715;42.386;20.434;2022-11-20T10:16:42;96700.00;;;12.76;74.83
63568;BME280;49715;42.386;20.434;2022-11-20T10:29:47;96677.84;;;12.77;76.43
63568;BME280;49715;42.386;20.434;2022-11-20T10:32:18;96676.94;;;12.70;76.13
63568;BME280;49715;42.386;20.434;2022-11-20T10:34:53;96656.78;;;12.69;77.02
63568;BME280;49715;42.386;20.434;2022-11-20T10:37:27;96646.38;;;12.68;77.66
63568;BME280;49715;42.386;20.434;2022-11-20T10:42:44;96648.66;;;12.71;77.86
63568;BME280;49715;42.386;20.434;2022-11-20T10:48:14;96607.81;;;12.73;78.27
63568;BME280;49715;42.386;20.434;2022-11-20T10:53:35;96666.25;;;12.78;78.16
63568;BME280;49715;42.386;20.434;2022-11-20T10:56:07;96695.53;;;12.77;77.67
63568;BME280;49715;42.386;20.434;2022-11-20T11:01:19;96677.47;;;12.66;77.86
63568;BME280;49715;42.386;20.434;2022-11-20T11:03:50;96658.31;;;12.63;77.95
63568;BME280;49715;42.386;20.434;2022-11-20T11:08:50;96658.50;;;12.62;78.44
63568;BME280;49715;42.386;20.434;2022-11-20T11:11:27;96685.94;;;12.61;78.72
63568;BME280;49715;42.386;20.434;2022-11-20T11:14:07;96710.91;;;12.58;78.68
63568;BME280;49715;42.386;20.434;2022-11-20T11:16:33;96707.28;;;12.59;78.38
63568;BME280;49715;42.386;20.434;2022-11-20T11:19:07;96713.00;;;12.63;78.33
63568;BME280;49715;42.386;20.434;2022-11-20T11:21:37;96699.63;;;12.65;78.28
63568;BME280;49715;42.386;20.434;2022-11-20T11:24:15;96699.63;;;12.65;78.37
63568;BME280;49715;42.386;20.434;2022-11-20T11:26:52;96694.34;;;12.65;78.18
63568;BME280;49715;42.386;20.434;2022-11-20T11:29:19;96726.06;;;12.65;77.81
63568;BME280;49715;42.386;20.434;2022-11-20T11:31:45;96726.22;;;12.63;77.68
63568;BME280;49715;42.386;20.434;2022-11-20T11:34:13;96752.03;;;12.61;76.79
63568;BME280;49715;42.386;20.434;2022-11-20T11:36:39;96754.03;;;12.59;77.17
63568;BME280;49715;42.386;20.434;2022-11-20T11:39:08;96756.50;;;12.60;77.56
63568;BME280;49715;42.386;20.434;2022-11-20T11:41:36;96767.72;;;12.62;77.73
63568;BME280;49715;42.386;20.434;2022-11-20T11:44:16;96779.56;;;12.67;77.64
63568;BME280;49715;42.386;20.434;2022-11-20T11:47:02;96783.84;;;12.68;77.63
63568;BME280;49715;42.386;20.434;2022-11-20T11:49:29;96769.47;;;12.70;77.48
63568;BME280;49715;42.386;20.434;2022-11-20T11:54:38;96738.09;;;12.67;77.62
63568;BME280;49715;42.386;20.434;2022-11-20T12:03:04;96741.28;;;12.62;78.11
63568;BME280;49715;42.386;20.434;2022-11-20T12:12:47;96726.44;;;12.61;78.66
63568;BME280;49715;42.386;20.434;2022-11-20T12:15:19;96721.47;;;12.58;78.93
63568;BME280;49715;42.386;20.434;2022-11-20T12:17:48;96706.16;;;12.54;79.18
63568;BME280;49715;42.386;20.434;2022-11-20T12:20:14;96703.91;;;12.51;79.31
63568;BME280;49715;42.386;20.434;2022-11-20T12:22:43;96712.66;;;12.51;79.62
63568;BME280;49715;42.386;20.434;2022-11-20T12:30:18;96741.34;;;12.40;78.98
63568;BME280;49715;42.386;20.434;2022-11-20T12:40:15;96681.38;;;12.40;79.34
63568;BME280;49715;42.386;20.434;2022-11-20T13:00:56;96707.09;;;12.46;79.44
63568;BME280;49715;42.386;20.434;2022-11-20T13:03:41;96686.56;;;12.48;79.33
63568;BME280;49715;42.386;20.434;2022-11-20T13:08:39;96627.59;;;12.48;78.92
63568;BME280;49715;42.386;20.434;2022-11-20T13:13:35;96622.22;;;12.41;79.11
63568;BME280;49715;42.386;20.434;2022-11-20T13:16:16;96602.72;;;12.42;79.18
63568;BME280;49715;42.386;20.434;2022-11-20T13:18:43;96599.25;;;12.42;79.39
63568;BME280;49715;42.386;20.434;2022-11-20T13:21:18;96595.00;;;12.41;79.09
63568;BME280;49715;42.386;20.434;2022-11-20T13:23:45;96612.84;;;12.38;78.76
63568;BME280;49715;42.386;20.434;2022-11-20T13:26:15;96635.63;;;12.40;78.95
63568;BME280;49715;42.386;20.434;2022-11-20T13:28:42;96611.00;;;12.39;78.63
63568;BME280;49715;42.386;20.434;2022-11-20T13:31:09;96599.81;;;12.37;78.52
63568;BME280;49715;42.386;20.434;2022-11-20T13:33:49;96599.81;;;12.37;78.81
63568;BME280;49715;42.386;20.434;2022-11-20T13:36:21;96590.25;;;12.36;78.81
63568;BME280;49715;42.386;20.434;2022-11-20T13:38:49;96578.41;;;12.32;78.66
63568;BME280;49715;42.386;20.434;2022-11-20T13:43:58;96584.69;;;12.16;78.94
63568;BME280;49715;42.386;20.434;2022-11-20T13:46:34;96582.13;;;12.08;79.20
63568;BME280;49715;42.386;20.434;2022-11-20T13:49:05;96574.81;;;12.10;79.58
63568;BME280;49715;42.386;20.434;2022-11-20T13:51:43;96576.91;;;12.15;79.74
63568;BME280;49715;42.386;20.434;2022-11-20T14:01:47;96613.91;;;12.29;79.38
63568;BME280;49715;42.386;20.434;2022-11-20T14:04:15;96595.25;;;12.31;79.34
63568;BME280;49715;42.386;20.434;2022-11-20T14:06:44;96575.47;;;12.27;79.40
63568;BME280;49715;42.386;20.434;2022-11-20T14:09:12;96588.97;;;12.32;79.34
63568;BME280;49715;42.386;20.434;2022-11-20T14:11:45;96589.78;;;12.32;79.37
63568;BME280;49715;42.386;20.434;2022-11-20T14:14:16;96592.06;;;12.35;79.43
63568;BME280;49715;42.386;20.434;2022-11-20T14:16:43;96592.06;;;12.35;79.45
63568;BME280;49715;42.386;20.434;2022-11-20T14:21:52;96583.75;;;12.38;79.39
63568;BME280;49715;42.386;20.434;2022-11-20T14:24:20;96580.97;;;12.40;79.48
63568;BME280;49715;42.386;20.434;2022-11-20T14:26:52;96584.22;;;12.42;79.25
63568;BME280;49715;42.386;20.434;2022-11-20T14:29:19;96594.59;;;12.44;79.02
63568;BME280;49715;42.386;20.434;2022-11-20T14:31:46;96583.22;;;12.43;78.81
63568;BME280;49715;42.386;20.434;2022-11-20T14:34:17;96580.41;;;12.45;78.62
63568;BME280;49715;42.386;20.434;2022-11-20T14:36:44;96591.81;;;12.45;78.57
63568;BME280;49715;42.386;20.434;2022-11-20T14:39:20;96588.97;;;12.47;78.67